sensor_id;sensor_type;location;lat;lon;timestamp;P1;durP1;ratioP1;P2;durP2;ratioP2
18217;SDS011;9234;49.344;11.120;2023-05-14T00:00:35;8.00;;;6.20;;
18217;SDS011;9234;49.344;11.120;2023-05-14T00:03:03;9.13;;;6.33;;
18217;SDS011;9234;49.344;11.120;2023-05-14T00:05:33;7.23;;;6.40;;
18217;SDS011;9234;49.344;11.120;2023-05-14T00:08:01;8.30;;;7.00;;
18217;SDS011;9234;49.344;11.120;2023-05-14T00:10:30;7.90;;;5.70;;
18217;SDS011;9234;49.344;11.120;2023-05-14T00:12:58;9.73;;;6.57;;
18217;SDS011;9234;49.344;11.120;2023-05-14T00:15:27;7.23;;;6.30;;
18217;SDS011;9234;49.344;11.120;2023-05-14T00:17:59;7.93;;;6.30;;
18217;SDS011;9234;49.344;11.120;2023-05-14T00:20:27;6.47;;;5.30;;
18217;SDS011;9234;49.344;11.120;2023-05-14T00:22:58;7.47;;;5.97;;
18217;SDS011;9234;49.344;11.120;2023-05-14T00:25:27;6.13;;;5.53;;
18217;SDS011;9234;49.344;11.120;2023-05-14T00:27:56;8.07;;;6.33;;
18217;SDS011;9234;49.344;11.120;2023-05-14T00:30:24;10.93;;;6.77;;
18217;SDS011;9234;49.344;11.120;2023-05-14T00:32:52;11.60;;;6.20;;
18217;SDS011;9234;49.344;11.120;2023-05-14T00:35:20;8.53;;;6.30;;
18217;SDS011;9234;49.344;11.120;2023-05-14T00:37:49;7.90;;;6.57;;
18217;SDS011;9234;49.344;11.120;2023-05-14T00:40:18;7.40;;;6.20;;
18217;SDS011;9234;49.344;11.120;2023-05-14T00:42:52;8.70;;;5.83;;
18217;SDS011;9234;49.344;11.120;2023-05-14T00:45:20;6.33;;;5.40;;
18217;SDS011;9234;49.344;11.120;2023-05-14T00:47:48;7.30;;;5.63;;
18217;SDS011;9234;49.344;11.120;2023-05-14T00:50:18;11.77;;;6.40;;
18217;SDS011;9234;49.344;11.120;2023-05-14T00:52:47;7.47;;;5.67;;
18217;SDS011;9234;49.344;11.120;2023-05-14T00:55:16;6.87;;;6.00;;
18217;SDS011;9234;49.344;11.120;2023-05-14T00:57:48;6.87;;;5.70;;
18217;SDS011;9234;49.344;11.120;2023-05-14T01:00:17;9.23;;;5.83;;
18217;SDS011;9234;49.344;11.120;2023-05-14T01:02:46;7.73;;;6.00;;
18217;SDS011;9234;49.344;11.120;2023-05-14T01:05:14;7.63;;;6.50;;
18217;SDS011;9234;49.344;11.120;2023-05-14T01:07:45;7.50;;;6.70;;
18217;SDS011;9234;49.344;11.120;2023-05-14T01:10:26;6.77;;;6.07;;
18217;SDS011;9234;49.344;11.120;2023-05-14T01:13:11;6.13;;;5.27;;
18217;SDS011;9234;49.344;11.120;2023-05-14T01:15:50;7.13;;;6.30;;
18217;SDS011;9234;49.344;11.120;2023-05-14T01:18:22;6.33;;;5.40;;
18217;SDS011;9234;49.344;11.120;2023-05-14T01:20:52;6.97;;;6.23;;
18217;SDS011;9234;49.344;11.120;2023-05-14T01:23:22;6.90;;;6.20;;
18217;SDS011;9234;49.344;11.120;2023-05-14T01:25:50;8.00;;;6.90;;
18217;SDS011;9234;49.344;11.120;2023-05-14T01:28:19;9.13;;;6.97;;
18217;SDS011;9234;49.344;11.120;2023-05-14T01:30:59;10.40;;;7.20;;
18217;SDS011;9234;49.344;11.120;2023-05-14T01:33:34;6.07;;;5.47;;
18217;SDS011;9234;49.344;11.120;2023-05-14T01:36:04;6.23;;;5.43;;
18217;SDS011;9234;49.344;11.120;2023-05-14T01:38:34;8.03;;;6.10;;
18217;SDS011;9234;49.344;11.120;2023-05-14T01:41:03;7.10;;;6.20;;
18217;SDS011;9234;49.344;11.120;2023-05-14T01:43:32;7.37;;;6.13;;
18217;SDS011;9234;49.344;11.120;2023-05-14T01:46:01;8.03;;;6.37;;
18217;SDS011;9234;49.344;11.120;2023-05-14T01:48:30;9.47;;;6.77;;
18217;SDS011;9234;49.344;11.120;2023-05-14T01:50:58;8.00;;;6.80;;
18217;SDS011;9234;49.344;11.120;2023-05-14T01:53:27;7.50;;;6.70;;
18217;SDS011;9234;49.344;11.120;2023-05-14T01:55:57;7.63;;;6.13;;
18217;SDS011;9234;49.344;11.120;2023-05-14T01:58:25;7.30;;;6.03;;
18217;SDS011;9234;49.344;11.120;2023-05-14T02:00:53;7.17;;;6.47;;
18217;SDS011;9234;49.344;11.120;2023-05-14T02:03:21;7.70;;;6.83;;
18217;SDS011;9234;49.344;11.120;2023-05-14T02:05:49;6.80;;;6.10;;
18217;SDS011;9234;49.344;11.120;2023-05-14T02:08:18;9.63;;;6.93;;
18217;SDS011;9234;49.344;11.120;2023-05-14T02:10:46;7.50;;;6.30;;
18217;SDS011;9234;49.344;11.120;2023-05-14T02:13:16;11.03;;;7.13;;
18217;SDS011;9234;49.344;11.120;2023-05-14T02:15:44;11.10;;;6.60;;
18217;SDS011;9234;49.344;11.120;2023-05-14T02:18:12;14.60;;;7.40;;
18217;SDS011;9234;49.344;11.120;2023-05-14T02:20:41;8.17;;;7.20;;
18217;SDS011;9234;49.344;11.120;2023-05-14T02:23:09;7.93;;;6.80;;
18217;SDS011;9234;49.344;11.120;2023-05-14T02:25:37;7.53;;;6.20;;
18217;SDS011;9234;49.344;11.120;2023-05-14T02:28:06;8.20;;;7.18;;
18217;SDS011;9234;49.344;11.120;2023-05-14T02:30:35;11.30;;;8.00;;
18217;SDS011;9234;49.344;11.120;2023-05-14T02:33:03;9.17;;;7.40;;
18217;SDS011;9234;49.344;11.120;2023-05-14T02:35:32;8.93;;;6.70;;
18217;SDS011;9234;49.344;11.120;2023-05-14T02:38:00;9.23;;;7.83;;
18217;SDS011;9234;49.344;11.120;2023-05-14T02:40:28;10.18;;;7.05;;
18217;SDS011;9234;49.344;11.120;2023-05-14T02:42:56;8.87;;;7.50;;
18217;SDS011;9234;49.344;11.120;2023-05-14T02:45:25;10.23;;;7.63;;
18217;SDS011;9234;49.344;11.120;2023-05-14T02:47:54;11.27;;;7.77;;
18217;SDS011;9234;49.344;11.120;2023-05-14T02:50:22;10.73;;;7.00;;
18217;SDS011;9234;49.344;11.120;2023-05-14T02:52:51;7.73;;;6.93;;
18217;SDS011;9234;49.344;11.120;2023-05-14T02:55:19;8.68;;;6.97;;
18217;SDS011;9234;49.344;11.120;2023-05-14T02:57:48;8.20;;;6.83;;
18217;SDS011;9234;49.344;11.120;2023-05-14T03:00:18;10.83;;;7.23;;
18217;SDS011;9234;49.344;11.120;2023-05-14T03:02:47;10.37;;;6.60;;
18217;SDS011;9234;49.344;11.120;2023-05-14T03:05:17;8.00;;;6.93;;
18217;SDS011;9234;49.344;11.120;2023-05-14T03:07:45;8.47;;;7.23;;
18217;SDS011;9234;49.344;11.120;2023-05-14T03:10:14;8.80;;;6.97;;
18217;SDS011;9234;49.344;11.120;2023-05-14T03:12:42;7.13;;;6.43;;
18217;SDS011;9234;49.344;11.120;2023-05-14T03:15:10;7.95;;;7.03;;
18217;SDS011;9234;49.344;11.120;2023-05-14T03:17:39;7.53;;;6.63;;
18217;SDS011;9234;49.344;11.120;2023-05-14T03:20:07;7.60;;;6.60;;
18217;SDS011;9234;49.344;11.120;2023-05-14T03:22:38;7.80;;;6.80;;
18217;SDS011;9234;49.344;11.120;2023-05-14T03:25:07;8.13;;;6.28;;
18217;SDS011;9234;49.344;11.120;2023-05-14T03:27:36;8.15;;;7.13;;
18217;SDS011;9234;49.344;11.120;2023-05-14T03:30:04;8.10;;;5.90;;
18217;SDS011;9234;49.344;11.120;2023-05-14T03:32:34;8.33;;;6.93;;
18217;SDS011;9234;49.344;11.120;2023-05-14T03:35:04;7.72;;;6.32;;
18217;SDS011;9234;49.344;11.120;2023-05-14T03:37:33;8.03;;;6.60;;
18217;SDS011;9234;49.344;11.120;2023-05-14T03:40:03;7.90;;;7.17;;
18217;SDS011;9234;49.344;11.120;2023-05-14T03:42:34;9.67;;;7.87;;
18217;SDS011;9234;49.344;11.120;2023-05-14T03:45:03;9.25;;;7.50;;
18217;SDS011;9234;49.344;11.120;2023-05-14T03:47:33;9.85;;;7.72;;
18217;SDS011;9234;49.344;11.120;2023-05-14T03:50:01;11.97;;;7.47;;
18217;SDS011;9234;49.344;11.120;2023-05-14T03:52:29;8.37;;;7.57;;
18217;SDS011;9234;49.344;11.120;2023-05-14T03:54:58;7.65;;;6.90;;
18217;SDS011;9234;49.344;11.120;2023-05-14T03:57:27;9.70;;;8.25;;
18217;SDS011;9234;49.344;11.120;2023-05-14T03:59:55;8.57;;;7.80;;
18217;SDS011;9234;49.344;11.120;2023-05-14T04:02:23;8.25;;;7.45;;
18217;SDS011;9234;49.344;11.120;2023-05-14T04:04:54;8.43;;;6.60;;
18217;SDS011;9234;49.344;11.120;2023-05-14T04:07:22;8.30;;;7.50;;
18217;SDS011;9234;49.344;11.120;2023-05-14T04:09:51;8.68;;;7.78;;
18217;SDS011;9234;49.344;11.120;2023-05-14T04:12:20;13.13;;;7.33;;
18217;SDS011;9234;49.344;11.120;2023-05-14T04:14:49;8.07;;;7.38;;
18217;SDS011;9234;49.344;11.120;2023-05-14T04:17:17;8.20;;;7.18;;
18217;SDS011;9234;49.344;11.120;2023-05-14T04:19:47;9.27;;;8.30;;
18217;SDS011;9234;49.344;11.120;2023-05-14T04:22:15;9.57;;;7.15;;
18217;SDS011;9234;49.344;11.120;2023-05-14T04:24:43;11.60;;;7.80;;
18217;SDS011;9234;49.344;11.120;2023-05-14T04:27:13;9.73;;;8.45;;
18217;SDS011;9234;49.344;11.120;2023-05-14T04:29:46;10.70;;;8.63;;
18217;SDS011;9234;49.344;11.120;2023-05-14T04:32:15;9.00;;;7.63;;
18217;SDS011;9234;49.344;11.120;2023-05-14T04:34:44;8.37;;;7.57;;
18217;SDS011;9234;49.344;11.120;2023-05-14T04:37:13;9.27;;;8.38;;
18217;SDS011;9234;49.344;11.120;2023-05-14T04:39:41;8.75;;;7.55;;
18217;SDS011;9234;49.344;11.120;2023-05-14T04:42:09;9.25;;;8.43;;
18217;SDS011;9234;49.344;11.120;2023-05-14T04:44:37;8.90;;;7.03;;
18217;SDS011;9234;49.344;11.120;2023-05-14T04:47:05;9.60;;;7.75;;
18217;SDS011;9234;49.344;11.120;2023-05-14T04:49:35;8.43;;;7.45;;
18217;SDS011;9234;49.344;11.120;2023-05-14T04:52:03;8.70;;;7.82;;
18217;SDS011;9234;49.344;11.120;2023-05-14T04:54:32;8.90;;;7.97;;
18217;SDS011;9234;49.344;11.120;2023-05-14T04:57:00;9.65;;;7.90;;
18217;SDS011;9234;49.344;11.120;2023-05-14T04:59:29;9.00;;;8.07;;
18217;SDS011;9234;49.344;11.120;2023-05-14T05:01:57;10.57;;;8.07;;
18217;SDS011;9234;49.344;11.120;2023-05-14T05:04:25;8.38;;;7.53;;
18217;SDS011;9234;49.344;11.120;2023-05-14T05:06:55;9.00;;;8.05;;
18217;SDS011;9234;49.344;11.120;2023-05-14T05:09:23;12.05;;;10.32;;
18217;SDS011;9234;49.344;11.120;2023-05-14T05:11:51;10.03;;;8.97;;
18217;SDS011;9234;49.344;11.120;2023-05-14T05:14:19;10.73;;;9.60;;
18217;SDS011;9234;49.344;11.120;2023-05-14T05:16:48;11.98;;;10.25;;
18217;SDS011;9234;49.344;11.120;2023-05-14T05:19:17;13.03;;;10.73;;
18217;SDS011;9234;49.344;11.120;2023-05-14T05:21:59;10.43;;;9.32;;
18217;SDS011;9234;49.344;11.120;2023-05-14T05:24:28;11.32;;;10.20;;
18217;SDS011;9234;49.344;11.120;2023-05-14T05:26:56;10.73;;;9.63;;
18217;SDS011;9234;49.344;11.120;2023-05-14T05:29:24;11.23;;;9.55;;
18217;SDS011;9234;49.344;11.120;2023-05-14T05:31:52;9.88;;;8.88;;
18217;SDS011;9234;49.344;11.120;2023-05-14T05:34:21;10.55;;;9.02;;
18217;SDS011;9234;49.344;11.120;2023-05-14T05:36:49;10.35;;;8.70;;
18217;SDS011;9234;49.344;11.120;2023-05-14T05:39:19;10.02;;;8.75;;
18217;SDS011;9234;49.344;11.120;2023-05-14T05:41:47;9.57;;;8.65;;
18217;SDS011;9234;49.344;11.120;2023-05-14T05:44:15;9.40;;;8.20;;
18217;SDS011;9234;49.344;11.120;2023-05-14T05:46:43;9.98;;;8.40;;
18217;SDS011;9234;49.344;11.120;2023-05-14T05:49:12;9.20;;;8.30;;
18217;SDS011;9234;49.344;11.120;2023-05-14T05:51:42;10.95;;;7.80;;
18217;SDS011;9234;49.344;11.120;2023-05-14T05:54:10;7.68;;;6.97;;
18217;SDS011;9234;49.344;11.120;2023-05-14T05:56:39;8.03;;;7.10;;
18217;SDS011;9234;49.344;11.120;2023-05-14T05:59:08;8.05;;;7.35;;
18217;SDS011;9234;49.344;11.120;2023-05-14T06:01:36;8.73;;;7.85;;
18217;SDS011;9234;49.344;11.120;2023-05-14T06:04:05;8.15;;;7.43;;
18217;SDS011;9234;49.344;11.120;2023-05-14T06:06:34;8.65;;;7.63;;
18217;SDS011;9234;49.344;11.120;2023-05-14T06:09:02;8.93;;;8.02;;
18217;SDS011;9234;49.344;11.120;2023-05-14T06:11:32;8.70;;;6.68;;
18217;SDS011;9234;49.344;11.120;2023-05-14T06:14:01;8.75;;;7.25;;
18217;SDS011;9234;49.344;11.120;2023-05-14T06:16:29;8.27;;;6.63;;
18217;SDS011;9234;49.344;11.120;2023-05-14T06:18:58;7.75;;;6.95;;
18217;SDS011;9234;49.344;11.120;2023-05-14T06:21:26;7.75;;;7.00;;
18217;SDS011;9234;49.344;11.120;2023-05-14T06:23:54;7.85;;;6.63;;
18217;SDS011;9234;49.344;11.120;2023-05-14T06:26:23;7.88;;;6.88;;
18217;SDS011;9234;49.344;11.120;2023-05-14T06:28:51;7.97;;;6.80;;
18217;SDS011;9234;49.344;11.120;2023-05-14T06:31:21;9.18;;;6.90;;
18217;SDS011;9234;49.344;11.120;2023-05-14T06:33:49;8.48;;;6.68;;
18217;SDS011;9234;49.344;11.120;2023-05-14T06:36:17;9.25;;;7.75;;
18217;SDS011;9234;49.344;11.120;2023-05-14T06:38:45;9.02;;;8.13;;
18217;SDS011;9234;49.344;11.120;2023-05-14T06:41:13;8.05;;;7.32;;
18217;SDS011;9234;49.344;11.120;2023-05-14T06:43:43;8.75;;;7.90;;
18217;SDS011;9234;49.344;11.120;2023-05-14T06:46:11;8.23;;;6.90;;
18217;SDS011;9234;49.344;11.120;2023-05-14T06:48:40;6.93;;;5.80;;
18217;SDS011;9234;49.344;11.120;2023-05-14T06:51:09;7.18;;;6.40;;
18217;SDS011;9234;49.344;11.120;2023-05-14T06:53:38;7.40;;;6.65;;
18217;SDS011;9234;49.344;11.120;2023-05-14T06:56:07;7.00;;;6.20;;
18217;SDS011;9234;49.344;11.120;2023-05-14T06:58:35;7.00;;;6.30;;
18217;SDS011;9234;49.344;11.120;2023-05-14T07:01:03;8.23;;;6.80;;
18217;SDS011;9234;49.344;11.120;2023-05-14T07:03:32;6.13;;;5.47;;
18217;SDS011;9234;49.344;11.120;2023-05-14T07:06:01;7.68;;;5.72;;
18217;SDS011;9234;49.344;11.120;2023-05-14T07:08:30;6.88;;;5.85;;
18217;SDS011;9234;49.344;11.120;2023-05-14T07:10:58;7.53;;;6.57;;
18217;SDS011;9234;49.344;11.120;2023-05-14T07:13:26;6.25;;;5.65;;
18217;SDS011;9234;49.344;11.120;2023-05-14T07:15:54;8.02;;;6.65;;
18217;SDS011;9234;49.344;11.120;2023-05-14T07:18:22;8.73;;;6.45;;
18217;SDS011;9234;49.344;11.120;2023-05-14T07:20:51;5.70;;;5.20;;
18217;SDS011;9234;49.344;11.120;2023-05-14T07:23:20;6.95;;;5.47;;
18217;SDS011;9234;49.344;11.120;2023-05-14T07:25:48;6.50;;;5.78;;
18217;SDS011;9234;49.344;11.120;2023-05-14T07:28:17;6.00;;;5.40;;
18217;SDS011;9234;49.344;11.120;2023-05-14T07:30:45;6.30;;;5.00;;
18217;SDS011;9234;49.344;11.120;2023-05-14T07:33:13;5.53;;;5.00;;
18217;SDS011;9234;49.344;11.120;2023-05-14T07:35:41;8.23;;;5.20;;
18217;SDS011;9234;49.344;11.120;2023-05-14T07:38:10;6.25;;;5.65;;
18217;SDS011;9234;49.344;11.120;2023-05-14T07:40:39;5.97;;;5.30;;
18217;SDS011;9234;49.344;11.120;2023-05-14T07:43:07;5.53;;;5.03;;
18217;SDS011;9234;49.344;11.120;2023-05-14T07:45:36;7.25;;;5.35;;
18217;SDS011;9234;49.344;11.120;2023-05-14T07:48:05;9.32;;;5.28;;
18217;SDS011;9234;49.344;11.120;2023-05-14T07:50:33;6.05;;;5.13;;
18217;SDS011;9234;49.344;11.120;2023-05-14T07:53:02;6.05;;;5.53;;
18217;SDS011;9234;49.344;11.120;2023-05-14T07:55:31;6.20;;;5.60;;
18217;SDS011;9234;49.344;11.120;2023-05-14T07:58:00;5.97;;;5.38;;
18217;SDS011;9234;49.344;11.120;2023-05-14T08:00:28;6.13;;;5.03;;
18217;SDS011;9234;49.344;11.120;2023-05-14T08:02:57;5.88;;;5.28;;
18217;SDS011;9234;49.344;11.120;2023-05-14T08:05:25;5.93;;;5.40;;
18217;SDS011;9234;49.344;11.120;2023-05-14T08:07:53;8.50;;;7.60;;
18217;SDS011;9234;49.344;11.120;2023-05-14T08:10:22;7.07;;;6.38;;
18217;SDS011;9234;49.344;11.120;2023-05-14T08:12:51;7.07;;;6.40;;
18217;SDS011;9234;49.344;11.120;2023-05-14T08:15:20;6.60;;;6.00;;
18217;SDS011;9234;49.344;11.120;2023-05-14T08:17:52;5.50;;;5.00;;
18217;SDS011;9234;49.344;11.120;2023-05-14T08:20:21;5.28;;;4.57;;
18217;SDS011;9234;49.344;11.120;2023-05-14T08:22:50;6.32;;;5.30;;
18217;SDS011;9234;49.344;11.120;2023-05-14T08:25:18;5.80;;;5.20;;
18217;SDS011;9234;49.344;11.120;2023-05-14T08:27:46;6.57;;;5.60;;
18217;SDS011;9234;49.344;11.120;2023-05-14T08:30:14;5.50;;;5.00;;
18217;SDS011;9234;49.344;11.120;2023-05-14T08:32:44;5.15;;;4.75;;
18217;SDS011;9234;49.344;11.120;2023-05-14T08:35:12;5.97;;;4.75;;
18217;SDS011;9234;49.344;11.120;2023-05-14T08:37:41;6.28;;;4.30;;
18217;SDS011;9234;49.344;11.120;2023-05-14T08:40:10;5.30;;;4.40;;
18217;SDS011;9234;49.344;11.120;2023-05-14T08:42:39;5.53;;;4.82;;
18217;SDS011;9234;49.344;11.120;2023-05-14T08:45:11;5.20;;;4.70;;
18217;SDS011;9234;49.344;11.120;2023-05-14T08:47:47;4.78;;;4.28;;
18217;SDS011;9234;49.344;11.120;2023-05-14T08:50:17;5.00;;;4.47;;
18217;SDS011;9234;49.344;11.120;2023-05-14T08:52:49;5.40;;;4.90;;
18217;SDS011;9234;49.344;11.120;2023-05-14T08:55:17;6.22;;;4.88;;
18217;SDS011;9234;49.344;11.120;2023-05-14T08:57:47;5.07;;;4.53;;
18217;SDS011;9234;49.344;11.120;2023-05-14T09:00:16;4.50;;;4.10;;
18217;SDS011;9234;49.344;11.120;2023-05-14T09:02:44;4.75;;;3.97;;
18217;SDS011;9234;49.344;11.120;2023-05-14T09:05:16;4.95;;;4.30;;
18217;SDS011;9234;49.344;11.120;2023-05-14T09:07:45;4.95;;;4.45;;
18217;SDS011;9234;49.344;11.120;2023-05-14T09:10:13;6.25;;;4.97;;
18217;SDS011;9234;49.344;11.120;2023-05-14T09:12:43;5.90;;;5.15;;
18217;SDS011;9234;49.344;11.120;2023-05-14T09:15:11;6.28;;;4.40;;
18217;SDS011;9234;49.344;11.120;2023-05-14T09:17:39;4.95;;;4.18;;
18217;SDS011;9234;49.344;11.120;2023-05-14T09:20:10;4.50;;;4.10;;
18217;SDS011;9234;49.344;11.120;2023-05-14T09:22:39;4.95;;;4.32;;
18217;SDS011;9234;49.344;11.120;2023-05-14T09:25:08;4.03;;;3.72;;
18217;SDS011;9234;49.344;11.120;2023-05-14T09:27:38;4.30;;;3.85;;
18217;SDS011;9234;49.344;11.120;2023-05-14T09:30:07;5.47;;;3.90;;
18217;SDS011;9234;49.344;11.120;2023-05-14T09:32:37;6.40;;;3.90;;
18217;SDS011;9234;49.344;11.120;2023-05-14T09:35:14;3.67;;;3.38;;
18217;SDS011;9234;49.344;11.120;2023-05-14T09:37:46;3.72;;;3.38;;
18217;SDS011;9234;49.344;11.120;2023-05-14T09:40:17;3.67;;;3.38;;
18217;SDS011;9234;49.344;11.120;2023-05-14T09:42:47;3.58;;;3.28;;
18217;SDS011;9234;49.344;11.120;2023-05-14T09:45:15;3.13;;;2.83;;
18217;SDS011;9234;49.344;11.120;2023-05-14T09:47:44;3.22;;;2.92;;
18217;SDS011;9234;49.344;11.120;2023-05-14T09:50:14;4.30;;;3.00;;
18217;SDS011;9234;49.344;11.120;2023-05-14T09:52:43;4.13;;;3.13;;
18217;SDS011;9234;49.344;11.120;2023-05-14T09:55:11;4.78;;;3.70;;
18217;SDS011;9234;49.344;11.120;2023-05-14T09:57:41;5.40;;;4.15;;
18217;SDS011;9234;49.344;11.120;2023-05-14T10:00:10;7.22;;;3.90;;
18217;SDS011;9234;49.344;11.120;2023-05-14T10:02:41;4.95;;;3.72;;
18217;SDS011;9234;49.344;11.120;2023-05-14T10:05:14;4.30;;;3.90;;
18217;SDS011;9234;49.344;11.120;2023-05-14T10:07:45;4.65;;;4.20;;
18217;SDS011;9234;49.344;11.120;2023-05-14T10:10:17;5.70;;;4.18;;
18217;SDS011;9234;49.344;11.120;2023-05-14T10:12:49;5.43;;;4.88;;
18217;SDS011;9234;49.344;11.120;2023-05-14T10:15:25;4.55;;;4.15;;
18217;SDS011;9234;49.344;11.120;2023-05-14T10:18:02;5.07;;;3.80;;
18217;SDS011;9234;49.344;11.120;2023-05-14T10:20:37;4.55;;;4.03;;
18217;SDS011;9234;49.344;11.120;2023-05-14T10:23:07;4.65;;;4.13;;
18217;SDS011;9234;49.344;11.120;2023-05-14T10:25:36;122.78;;;14.63;;
18217;SDS011;9234;49.344;11.120;2023-05-14T10:28:05;43.60;;;7.63;;
18217;SDS011;9234;49.344;11.120;2023-05-14T10:30:33;14.32;;;4.90;;
18217;SDS011;9234;49.344;11.120;2023-05-14T10:33:06;12.48;;;5.00;;
18217;SDS011;9234;49.344;11.120;2023-05-14T10:35:56;12.82;;;4.60;;
18217;SDS011;9234;49.344;11.120;2023-05-14T10:38:31;4.55;;;3.50;;
18217;SDS011;9234;49.344;11.120;2023-05-14T10:41:01;5.60;;;3.67;;
18217;SDS011;9234;49.344;11.120;2023-05-14T10:43:34;3.90;;;3.50;;
18217;SDS011;9234;49.344;11.120;2023-05-14T10:46:04;5.50;;;3.95;;
18217;SDS011;9234;49.344;11.120;2023-05-14T10:48:34;3.58;;;3.28;;
18217;SDS011;9234;49.344;11.120;2023-05-14T10:51:07;5.40;;;4.13;;
18217;SDS011;9234;49.344;11.120;2023-05-14T10:53:37;3.78;;;3.47;;
18217;SDS011;9234;49.344;11.120;2023-05-14T10:56:08;3.83;;;3.53;;
18217;SDS011;9234;49.344;11.120;2023-05-14T10:58:38;5.43;;;4.22;;
18217;SDS011;9234;49.344;11.120;2023-05-14T11:01:09;3.83;;;3.53;;
18217;SDS011;9234;49.344;11.120;2023-05-14T11:03:40;3.75;;;3.22;;
18217;SDS011;9234;49.344;11.120;2023-05-14T11:06:13;3.55;;;3.25;;
18217;SDS011;9234;49.344;11.120;2023-05-14T11:08:42;4.22;;;3.75;;
18217;SDS011;9234;49.344;11.120;2023-05-14T11:11:11;3.78;;;3.42;;
18217;SDS011;9234;49.344;11.120;2023-05-14T11:13:40;3.92;;;3.50;;
18217;SDS011;9234;49.344;11.120;2023-05-14T11:16:10;3.75;;;3.45;;
18217;SDS011;9234;49.344;11.120;2023-05-14T11:18:46;3.55;;;3.22;;
18217;SDS011;9234;49.344;11.120;2023-05-14T11:21:20;4.55;;;3.90;;
18217;SDS011;9234;49.344;11.120;2023-05-14T11:23:48;4.25;;;3.85;;
18217;SDS011;9234;49.344;11.120;2023-05-14T11:26:16;3.45;;;3.15;;
18217;SDS011;9234;49.344;11.120;2023-05-14T11:28:47;3.30;;;3.00;;
18217;SDS011;9234;49.344;11.120;2023-05-14T11:31:16;4.38;;;3.17;;
18217;SDS011;9234;49.344;11.120;2023-05-14T11:33:44;3.50;;;3.08;;
18217;SDS011;9234;49.344;11.120;2023-05-14T11:36:13;3.38;;;3.08;;
18217;SDS011;9234;49.344;11.120;2023-05-14T11:38:48;4.63;;;3.28;;
18217;SDS011;9234;49.344;11.120;2023-05-14T11:41:19;3.47;;;3.17;;
18217;SDS011;9234;49.344;11.120;2023-05-14T11:43:48;3.83;;;3.05;;
18217;SDS011;9234;49.344;11.120;2023-05-14T11:46:17;3.63;;;3.08;;
18217;SDS011;9234;49.344;11.120;2023-05-14T11:48:45;3.10;;;2.80;;
18217;SDS011;9234;49.344;11.120;2023-05-14T11:51:14;4.68;;;3.45;;
18217;SDS011;9234;49.344;11.120;2023-05-14T11:53:43;3.45;;;3.15;;
18217;SDS011;9234;49.344;11.120;2023-05-14T11:56:14;3.03;;;2.80;;
18217;SDS011;9234;49.344;11.120;2023-05-14T11:58:46;3.55;;;3.00;;
18217;SDS011;9234;49.344;11.120;2023-05-14T12:01:15;3.20;;;2.90;;
18217;SDS011;9234;49.344;11.120;2023-05-14T12:03:43;3.40;;;3.10;;
18217;SDS011;9234;49.344;11.120;2023-05-14T12:06:11;4.75;;;2.35;;
18217;SDS011;9234;49.344;11.120;2023-05-14T12:08:40;3.03;;;2.83;;
18217;SDS011;9234;49.344;11.120;2023-05-14T12:11:08;2.42;;;2.22;;
18217;SDS011;9234;49.344;11.120;2023-05-14T12:13:38;3.10;;;2.85;;
18217;SDS011;9234;49.344;11.120;2023-05-14T12:16:06;3.28;;;2.80;;
18217;SDS011;9234;49.344;11.120;2023-05-14T12:18:35;3.53;;;3.22;;
18217;SDS011;9234;49.344;11.120;2023-05-14T12:21:04;3.33;;;2.88;;
18217;SDS011;9234;49.344;11.120;2023-05-14T12:23:34;2.80;;;2.60;;
18217;SDS011;9234;49.344;11.120;2023-05-14T12:26:05;3.38;;;2.70;;
18217;SDS011;9234;49.344;11.120;2023-05-14T12:28:37;3.05;;;2.78;;
18217;SDS011;9234;49.344;11.120;2023-05-14T12:31:14;2.50;;;2.30;;
18217;SDS011;9234;49.344;11.120;2023-05-14T12:33:42;2.80;;;2.58;;
18217;SDS011;9234;49.344;11.120;2023-05-14T12:36:10;2.47;;;2.28;;
18217;SDS011;9234;49.344;11.120;2023-05-14T12:38:45;2.45;;;2.25;;
18217;SDS011;9234;49.344;11.120;2023-05-14T12:41:13;3.05;;;2.60;;
18217;SDS011;9234;49.344;11.120;2023-05-14T12:43:44;2.75;;;2.47;;
18217;SDS011;9234;49.344;11.120;2023-05-14T12:46:15;3.08;;;2.70;;
18217;SDS011;9234;49.344;11.120;2023-05-14T12:48:43;12.20;;;3.50;;
18217;SDS011;9234;49.344;11.120;2023-05-14T12:51:11;4.57;;;2.72;;
18217;SDS011;9234;49.344;11.120;2023-05-14T12:53:40;4.05;;;2.90;;
18217;SDS011;9234;49.344;11.120;2023-05-14T12:56:08;2.92;;;2.63;;
18217;SDS011;9234;49.344;11.120;2023-05-14T12:58:36;2.55;;;2.35;;
18217;SDS011;9234;49.344;11.120;2023-05-14T13:01:06;3.35;;;3.05;;
18217;SDS011;9234;49.344;11.120;2023-05-14T13:03:34;3.25;;;2.95;;
18217;SDS011;9234;49.344;11.120;2023-05-14T13:06:02;10.43;;;9.38;;
18217;SDS011;9234;49.344;11.120;2023-05-14T13:08:31;5.38;;;4.97;;
18217;SDS011;9234;49.344;11.120;2023-05-14T13:10:59;3.58;;;3.28;;
18217;SDS011;9234;49.344;11.120;2023-05-14T13:13:27;3.40;;;3.10;;
18217;SDS011;9234;49.344;11.120;2023-05-14T13:15:56;2.85;;;2.58;;
18217;SDS011;9234;49.344;11.120;2023-05-14T13:18:25;3.72;;;3.33;;
18217;SDS011;9234;49.344;11.120;2023-05-14T13:20:53;3.25;;;2.83;;
18217;SDS011;9234;49.344;11.120;2023-05-14T13:23:22;4.60;;;2.90;;
18217;SDS011;9234;49.344;11.120;2023-05-14T13:25:50;2.85;;;2.60;;
18217;SDS011;9234;49.344;11.120;2023-05-14T13:28:18;3.00;;;2.70;;
18217;SDS011;9234;49.344;11.120;2023-05-14T13:31:02;3.00;;;2.80;;
18217;SDS011;9234;49.344;11.120;2023-05-14T13:33:35;3.42;;;2.72;;
18217;SDS011;9234;49.344;11.120;2023-05-14T13:36:06;3.38;;;2.97;;
18217;SDS011;9234;49.344;11.120;2023-05-14T13:38:36;4.30;;;2.80;;
18217;SDS011;9234;49.344;11.120;2023-05-14T13:41:04;3.78;;;2.42;;
18217;SDS011;9234;49.344;11.120;2023-05-14T13:43:33;2.75;;;2.55;;
18217;SDS011;9234;49.344;11.120;2023-05-14T13:46:02;3.75;;;3.45;;
18217;SDS011;9234;49.344;11.120;2023-05-14T13:48:32;2.75;;;2.42;;
18217;SDS011;9234;49.344;11.120;2023-05-14T13:51:02;4.05;;;3.08;;
18217;SDS011;9234;49.344;11.120;2023-05-14T13:53:30;3.10;;;2.83;;
18217;SDS011;9234;49.344;11.120;2023-05-14T13:55:59;2.80;;;2.58;;
18217;SDS011;9234;49.344;11.120;2023-05-14T13:58:27;2.97;;;2.42;;
18217;SDS011;9234;49.344;11.120;2023-05-14T14:00:55;2.67;;;2.47;;
18217;SDS011;9234;49.344;11.120;2023-05-14T14:03:24;3.15;;;2.85;;
18217;SDS011;9234;49.344;11.120;2023-05-14T14:05:52;3.10;;;2.50;;
18217;SDS011;9234;49.344;11.120;2023-05-14T14:08:22;2.83;;;2.63;;
18217;SDS011;9234;49.344;11.120;2023-05-14T14:10:50;3.03;;;2.33;;
18217;SDS011;9234;49.344;11.120;2023-05-14T14:13:20;2.92;;;2.72;;
18217;SDS011;9234;49.344;11.120;2023-05-14T14:15:49;2.80;;;2.60;;
18217;SDS011;9234;49.344;11.120;2023-05-14T14:18:17;3.95;;;2.60;;
18217;SDS011;9234;49.344;11.120;2023-05-14T14:20:46;2.75;;;2.55;;
18217;SDS011;9234;49.344;11.120;2023-05-14T14:23:14;2.83;;;2.60;;
18217;SDS011;9234;49.344;11.120;2023-05-14T14:25:44;3.03;;;2.83;;
18217;SDS011;9234;49.344;11.120;2023-05-14T14:28:12;2.83;;;2.50;;
18217;SDS011;9234;49.344;11.120;2023-05-14T14:30:40;2.65;;;2.45;;
18217;SDS011;9234;49.344;11.120;2023-05-14T14:33:09;3.45;;;3.15;;
18217;SDS011;9234;49.344;11.120;2023-05-14T14:35:37;3.33;;;2.67;;
18217;SDS011;9234;49.344;11.120;2023-05-14T14:38:06;3.08;;;2.88;;
18217;SDS011;9234;49.344;11.120;2023-05-14T14:40:34;3.20;;;2.90;;
18217;SDS011;9234;49.344;11.120;2023-05-14T14:43:04;2.88;;;2.60;;
18217;SDS011;9234;49.344;11.120;2023-05-14T14:45:32;5.22;;;3.42;;
18217;SDS011;9234;49.344;11.120;2023-05-14T14:51:04;4.35;;;3.35;;
18217;SDS011;9234;49.344;11.120;2023-05-14T14:53:34;4.32;;;3.03;;
18217;SDS011;9234;49.344;11.120;2023-05-14T14:56:03;7.97;;;3.20;;
18217;SDS011;9234;49.344;11.120;2023-05-14T14:58:33;3.20;;;2.88;;
18217;SDS011;9234;49.344;11.120;2023-05-14T15:01:02;3.08;;;2.85;;